sensor_id;sensor_type;location;lat;lon;timestamp;P1;durP1;ratioP1;P2;durP2;ratioP2
48861;SDS011;34681;49.188;-0.374;2022-11-25T00:01:11;8.20;;;4.60;;
48861;SDS011;34681;49.188;-0.374;2022-11-25T00:03:40;18.00;;;4.50;;
48861;SDS011;34681;49.188;-0.374;2022-11-25T00:06:16;12.20;;;4.07;;
48861;SDS011;34681;49.188;-0.374;2022-11-25T00:08:44;13.43;;;4.40;;
48861;SDS011;34681;49.188;-0.374;2022-11-25T00:11:11;14.00;;;4.13;;
48861;SDS011;34681;49.188;-0.374;2022-11-25T00:13:38;10.80;;;3.90;;
48861;SDS011;34681;49.188;-0.374;2022-11-25T00:16:06;10.90;;;3.97;;
48861;SDS011;34681;49.188;-0.374;2022-11-25T00:18:33;10.80;;;4.80;;
48861;SDS011;34681;49.188;-0.374;2022-11-25T00:21:03;14.33;;;5.20;;
48861;SDS011;34681;49.188;-0.374;2022-11-25T00:23:32;10.70;;;4.10;;
48861;SDS011;34681;49.188;-0.374;2022-11-25T00:26:03;13.00;;;4.47;;
48861;SDS011;34681;49.188;-0.374;2022-11-25T00:28:40;16.67;;;4.97;;
48861;SDS011;34681;49.188;-0.374;2022-11-25T00:31:07;10.47;;;4.40;;
48861;SDS011;34681;49.188;-0.374;2022-11-25T00:33:38;10.37;;;4.00;;
48861;SDS011;34681;49.188;-0.374;2022-11-25T00:36:04;13.03;;;4.23;;
48861;SDS011;34681;49.188;-0.374;2022-11-25T00:38:31;12.83;;;4.40;;
48861;SDS011;34681;49.188;-0.374;2022-11-25T00:40:56;11.67;;;3.80;;
48861;SDS011;34681;49.188;-0.374;2022-11-25T00:43:40;18.67;;;3.80;;
48861;SDS011;34681;49.188;-0.374;2022-11-25T00:46:25;13.60;;;5.00;;
48861;SDS011;34681;49.188;-0.374;2022-11-25T00:48:51;16.37;;;4.43;;
48861;SDS011;34681;49.188;-0.374;2022-11-25T00:51:17;14.53;;;4.80;;
48861;SDS011;34681;49.188;-0.374;2022-11-25T00:53:43;14.37;;;4.13;;
48861;SDS011;34681;49.188;-0.374;2022-11-25T00:56:09;13.83;;;5.20;;
48861;SDS011;34681;49.188;-0.374;2022-11-25T00:58:37;8.40;;;4.20;;
48861;SDS011;34681;49.188;-0.374;2022-11-25T01:01:03;14.10;;;4.90;;
48861;SDS011;34681;49.188;-0.374;2022-11-25T01:03:29;20.17;;;5.60;;
48861;SDS011;34681;49.188;-0.374;2022-11-25T01:05:59;10.33;;;4.67;;
48861;SDS011;34681;49.188;-0.374;2022-11-25T01:08:28;9.60;;;4.07;;
48861;SDS011;34681;49.188;-0.374;2022-11-25T01:11:13;11.80;;;3.73;;
48861;SDS011;34681;49.188;-0.374;2022-11-25T01:13:40;14.33;;;5.60;;
48861;SDS011;34681;49.188;-0.374;2022-11-25T01:16:08;9.73;;;4.50;;
48861;SDS011;34681;49.188;-0.374;2022-11-25T01:18:36;26.03;;;6.17;;
48861;SDS011;34681;49.188;-0.374;2022-11-25T01:21:08;13.20;;;4.77;;
48861;SDS011;34681;49.188;-0.374;2022-11-25T01:23:36;15.50;;;4.40;;
48861;SDS011;34681;49.188;-0.374;2022-11-25T01:26:03;21.03;;;5.53;;
48861;SDS011;34681;49.188;-0.374;2022-11-25T01:28:30;22.80;;;4.70;;
48861;SDS011;34681;49.188;-0.374;2022-11-25T01:31:00;13.63;;;4.03;;
48861;SDS011;34681;49.188;-0.374;2022-11-25T01:33:28;17.63;;;4.80;;
48861;SDS011;34681;49.188;-0.374;2022-11-25T01:36:06;12.30;;;4.30;;
48861;SDS011;34681;49.188;-0.374;2022-11-25T01:38:34;19.90;;;4.50;;
48861;SDS011;34681;49.188;-0.374;2022-11-25T01:41:00;11.43;;;3.80;;
48861;SDS011;34681;49.188;-0.374;2022-11-25T01:43:27;15.87;;;4.57;;
48861;SDS011;34681;49.188;-0.374;2022-11-25T01:46:35;16.37;;;4.47;;
48861;SDS011;34681;49.188;-0.374;2022-11-25T01:48:54;8.27;;;3.77;;
48861;SDS011;34681;49.188;-0.374;2022-11-25T01:51:27;12.10;;;4.40;;
48861;SDS011;34681;49.188;-0.374;2022-11-25T01:54:04;9.90;;;3.87;;
48861;SDS011;34681;49.188;-0.374;2022-11-25T01:56:34;18.10;;;5.00;;
48861;SDS011;34681;49.188;-0.374;2022-11-25T01:59:04;11.57;;;3.70;;
48861;SDS011;34681;49.188;-0.374;2022-11-25T02:01:30;9.30;;;3.57;;
48861;SDS011;34681;49.188;-0.374;2022-11-25T02:03:55;13.57;;;4.17;;
48861;SDS011;34681;49.188;-0.374;2022-11-25T02:06:23;14.53;;;3.80;;
48861;SDS011;34681;49.188;-0.374;2022-11-25T02:08:56;12.77;;;4.27;;
48861;SDS011;34681;49.188;-0.374;2022-11-25T02:11:27;11.40;;;4.27;;
48861;SDS011;34681;49.188;-0.374;2022-11-25T02:13:54;11.40;;;3.87;;
48861;SDS011;34681;49.188;-0.374;2022-11-25T02:16:20;11.10;;;3.40;;
48861;SDS011;34681;49.188;-0.374;2022-11-25T02:18:46;13.77;;;3.70;;
48861;SDS011;34681;49.188;-0.374;2022-11-25T02:21:14;7.10;;;2.63;;
48861;SDS011;34681;49.188;-0.374;2022-11-25T02:23:47;10.87;;;3.63;;
48861;SDS011;34681;49.188;-0.374;2022-11-25T02:26:14;13.63;;;5.03;;
48861;SDS011;34681;49.188;-0.374;2022-11-25T02:28:39;11.80;;;3.70;;
48861;SDS011;34681;49.188;-0.374;2022-11-25T02:31:06;16.10;;;4.40;;
48861;SDS011;34681;49.188;-0.374;2022-11-25T02:33:32;12.37;;;3.70;;
48861;SDS011;34681;49.188;-0.374;2022-11-25T02:36:01;13.00;;;4.33;;
48861;SDS011;34681;49.188;-0.374;2022-11-25T02:38:38;6.97;;;2.83;;
48861;SDS011;34681;49.188;-0.374;2022-11-25T02:41:07;16.17;;;4.60;;
48861;SDS011;34681;49.188;-0.374;2022-11-25T02:43:34;17.23;;;4.37;;
48861;SDS011;34681;49.188;-0.374;2022-11-25T02:48:45;16.67;;;3.73;;
48861;SDS011;34681;49.188;-0.374;2022-11-25T02:51:12;17.10;;;4.87;;
48861;SDS011;34681;49.188;-0.374;2022-11-25T02:53:40;13.20;;;3.60;;
48861;SDS011;34681;49.188;-0.374;2022-11-25T02:56:06;20.20;;;4.00;;
48861;SDS011;34681;49.188;-0.374;2022-11-25T02:58:32;11.23;;;3.60;;
48861;SDS011;34681;49.188;-0.374;2022-11-25T03:00:58;14.23;;;3.60;;
48861;SDS011;34681;49.188;-0.374;2022-11-25T03:03:23;8.93;;;3.67;;
48861;SDS011;34681;49.188;-0.374;2022-11-25T03:05:48;6.90;;;3.40;;
48861;SDS011;34681;49.188;-0.374;2022-11-25T03:08:14;10.60;;;3.97;;
48861;SDS011;34681;49.188;-0.374;2022-11-25T03:10:40;8.80;;;3.10;;
48861;SDS011;34681;49.188;-0.374;2022-11-25T03:13:06;10.70;;;3.53;;
48861;SDS011;34681;49.188;-0.374;2022-11-25T03:15:32;12.00;;;3.67;;
48861;SDS011;34681;49.188;-0.374;2022-11-25T03:17:58;12.37;;;3.80;;
48861;SDS011;34681;49.188;-0.374;2022-11-25T03:20:23;10.53;;;3.53;;
48861;SDS011;34681;49.188;-0.374;2022-11-25T03:22:49;8.27;;;4.23;;
48861;SDS011;34681;49.188;-0.374;2022-11-25T03:25:15;11.33;;;4.77;;
48861;SDS011;34681;49.188;-0.374;2022-11-25T03:27:41;12.67;;;4.30;;
48861;SDS011;34681;49.188;-0.374;2022-11-25T03:30:08;15.70;;;4.83;;
48861;SDS011;34681;49.188;-0.374;2022-11-25T03:32:36;13.50;;;4.50;;
48861;SDS011;34681;49.188;-0.374;2022-11-25T03:35:02;9.17;;;3.03;;
48861;SDS011;34681;49.188;-0.374;2022-11-25T03:37:28;11.03;;;3.43;;
48861;SDS011;34681;49.188;-0.374;2022-11-25T03:39:53;17.73;;;3.37;;
48861;SDS011;34681;49.188;-0.374;2022-11-25T03:42:18;13.00;;;3.40;;
48861;SDS011;34681;49.188;-0.374;2022-11-25T03:44:44;8.20;;;3.57;;
48861;SDS011;34681;49.188;-0.374;2022-11-25T03:47:09;12.77;;;5.30;;
48861;SDS011;34681;49.188;-0.374;2022-11-25T03:49:34;11.03;;;4.43;;
48861;SDS011;34681;49.188;-0.374;2022-11-25T03:52:00;11.80;;;3.50;;
48861;SDS011;34681;49.188;-0.374;2022-11-25T03:54:26;10.50;;;4.00;;
48861;SDS011;34681;49.188;-0.374;2022-11-25T03:56:51;16.27;;;4.03;;
48861;SDS011;34681;49.188;-0.374;2022-11-25T03:59:16;11.00;;;4.47;;
48861;SDS011;34681;49.188;-0.374;2022-11-25T04:01:42;7.10;;;3.40;;
48861;SDS011;34681;49.188;-0.374;2022-11-25T04:04:07;10.73;;;3.83;;
48861;SDS011;34681;49.188;-0.374;2022-11-25T04:06:33;12.33;;;4.23;;
48861;SDS011;34681;49.188;-0.374;2022-11-25T04:08:59;10.20;;;4.10;;
48861;SDS011;34681;49.188;-0.374;2022-11-25T04:11:25;12.30;;;4.00;;
48861;SDS011;34681;49.188;-0.374;2022-11-25T04:14:10;11.90;;;3.30;;
48861;SDS011;34681;49.188;-0.374;2022-11-25T04:16:35;10.37;;;3.77;;
48861;SDS011;34681;49.188;-0.374;2022-11-25T04:19:01;8.77;;;3.63;;
48861;SDS011;34681;49.188;-0.374;2022-11-25T04:21:26;9.70;;;3.90;;
48861;SDS011;34681;49.188;-0.374;2022-11-25T04:23:52;9.93;;;3.97;;
48861;SDS011;34681;49.188;-0.374;2022-11-25T04:26:17;7.13;;;2.97;;
48861;SDS011;34681;49.188;-0.374;2022-11-25T04:28:43;8.10;;;3.40;;
48861;SDS011;34681;49.188;-0.374;2022-11-25T04:31:08;7.77;;;3.53;;
48861;SDS011;34681;49.188;-0.374;2022-11-25T04:33:34;11.83;;;3.87;;
48861;SDS011;34681;49.188;-0.374;2022-11-25T04:35:59;8.57;;;3.40;;
48861;SDS011;34681;49.188;-0.374;2022-11-25T04:38:25;9.17;;;3.40;;
48861;SDS011;34681;49.188;-0.374;2022-11-25T04:40:50;9.70;;;3.23;;
48861;SDS011;34681;49.188;-0.374;2022-11-25T04:43:15;11.60;;;3.60;;
48861;SDS011;34681;49.188;-0.374;2022-11-25T04:45:41;14.93;;;3.73;;
48861;SDS011;34681;49.188;-0.374;2022-11-25T04:48:08;12.17;;;3.43;;
48861;SDS011;34681;49.188;-0.374;2022-11-25T04:50:33;11.47;;;3.70;;
48861;SDS011;34681;49.188;-0.374;2022-11-25T04:52:59;11.10;;;3.87;;
48861;SDS011;34681;49.188;-0.374;2022-11-25T04:55:24;11.80;;;4.23;;
48861;SDS011;34681;49.188;-0.374;2022-11-25T04:57:50;14.83;;;5.63;;
48861;SDS011;34681;49.188;-0.374;2022-11-25T05:00:15;10.67;;;3.80;;
48861;SDS011;34681;49.188;-0.374;2022-11-25T05:02:41;14.30;;;3.73;;
48861;SDS011;34681;49.188;-0.374;2022-11-25T05:05:07;7.73;;;3.53;;
48861;SDS011;34681;49.188;-0.374;2022-11-25T05:07:32;7.83;;;2.70;;
48861;SDS011;34681;49.188;-0.374;2022-11-25T05:09:58;11.50;;;4.37;;
48861;SDS011;34681;49.188;-0.374;2022-11-25T05:12:25;9.43;;;3.30;;
48861;SDS011;34681;49.188;-0.374;2022-11-25T05:14:52;13.60;;;3.73;;
48861;SDS011;34681;49.188;-0.374;2022-11-25T05:17:19;10.87;;;3.33;;
48861;SDS011;34681;49.188;-0.374;2022-11-25T05:19:50;9.30;;;3.90;;
48861;SDS011;34681;49.188;-0.374;2022-11-25T05:22:20;11.90;;;4.17;;
48861;SDS011;34681;49.188;-0.374;2022-11-25T05:24:47;11.80;;;5.10;;
48861;SDS011;34681;49.188;-0.374;2022-11-25T05:27:13;10.70;;;5.03;;
48861;SDS011;34681;49.188;-0.374;2022-11-25T05:29:39;11.07;;;5.67;;
48861;SDS011;34681;49.188;-0.374;2022-11-25T05:32:05;17.33;;;5.50;;
48861;SDS011;34681;49.188;-0.374;2022-11-25T05:34:30;7.70;;;5.13;;
48861;SDS011;34681;49.188;-0.374;2022-11-25T05:36:56;11.87;;;5.10;;
48861;SDS011;34681;49.188;-0.374;2022-11-25T05:39:21;15.63;;;6.00;;
48861;SDS011;34681;49.188;-0.374;2022-11-25T05:41:47;12.47;;;4.40;;
48861;SDS011;34681;49.188;-0.374;2022-11-25T05:44:12;9.43;;;4.60;;
48861;SDS011;34681;49.188;-0.374;2022-11-25T05:46:38;15.30;;;7.10;;
48861;SDS011;34681;49.188;-0.374;2022-11-25T05:49:03;16.17;;;8.50;;
48861;SDS011;34681;49.188;-0.374;2022-11-25T05:51:29;14.53;;;8.90;;
48861;SDS011;34681;49.188;-0.374;2022-11-25T05:53:55;17.60;;;7.87;;
48861;SDS011;34681;49.188;-0.374;2022-11-25T05:56:20;14.90;;;6.73;;
48861;SDS011;34681;49.188;-0.374;2022-11-25T05:58:46;15.00;;;6.40;;
48861;SDS011;34681;49.188;-0.374;2022-11-25T06:01:12;16.90;;;6.00;;
48861;SDS011;34681;49.188;-0.374;2022-11-25T06:03:39;20.73;;;6.50;;
48861;SDS011;34681;49.188;-0.374;2022-11-25T06:06:05;13.17;;;5.70;;
48861;SDS011;34681;49.188;-0.374;2022-11-25T06:08:31;12.97;;;5.10;;
48861;SDS011;34681;49.188;-0.374;2022-11-25T06:10:57;14.40;;;5.47;;
48861;SDS011;34681;49.188;-0.374;2022-11-25T06:13:22;11.63;;;4.30;;
48861;SDS011;34681;49.188;-0.374;2022-11-25T06:15:48;12.00;;;5.03;;
48861;SDS011;34681;49.188;-0.374;2022-11-25T06:18:14;10.40;;;4.80;;
48861;SDS011;34681;49.188;-0.374;2022-11-25T06:20:41;9.20;;;4.10;;
48861;SDS011;34681;49.188;-0.374;2022-11-25T06:23:07;17.83;;;4.43;;
48861;SDS011;34681;49.188;-0.374;2022-11-25T06:25:33;20.03;;;4.60;;
48861;SDS011;34681;49.188;-0.374;2022-11-25T06:27:59;9.77;;;3.17;;
48861;SDS011;34681;49.188;-0.374;2022-11-25T06:30:25;9.20;;;3.87;;
48861;SDS011;34681;49.188;-0.374;2022-11-25T06:32:52;17.60;;;4.27;;
48861;SDS011;34681;49.188;-0.374;2022-11-25T06:35:18;13.90;;;4.77;;
48861;SDS011;34681;49.188;-0.374;2022-11-25T06:37:43;17.57;;;4.93;;
48861;SDS011;34681;49.188;-0.374;2022-11-25T06:40:09;10.20;;;3.97;;
48861;SDS011;34681;49.188;-0.374;2022-11-25T06:42:36;10.87;;;4.13;;
48861;SDS011;34681;49.188;-0.374;2022-11-25T06:45:02;11.60;;;3.83;;
48861;SDS011;34681;49.188;-0.374;2022-11-25T06:47:28;10.70;;;5.13;;
48861;SDS011;34681;49.188;-0.374;2022-11-25T06:49:53;11.60;;;4.13;;
48861;SDS011;34681;49.188;-0.374;2022-11-25T06:52:19;13.20;;;4.30;;
48861;SDS011;34681;49.188;-0.374;2022-11-25T06:54:44;12.70;;;4.97;;
48861;SDS011;34681;49.188;-0.374;2022-11-25T06:57:10;15.93;;;4.37;;
48861;SDS011;34681;49.188;-0.374;2022-11-25T06:59:37;10.93;;;3.93;;
48861;SDS011;34681;49.188;-0.374;2022-11-25T07:02:02;10.40;;;4.40;;
48861;SDS011;34681;49.188;-0.374;2022-11-25T07:04:28;11.07;;;4.20;;
48861;SDS011;34681;49.188;-0.374;2022-11-25T07:06:54;18.87;;;5.37;;
48861;SDS011;34681;49.188;-0.374;2022-11-25T07:09:19;8.17;;;3.77;;
48861;SDS011;34681;49.188;-0.374;2022-11-25T07:11:46;14.43;;;4.63;;
48861;SDS011;34681;49.188;-0.374;2022-11-25T07:14:12;10.77;;;4.63;;
48861;SDS011;34681;49.188;-0.374;2022-11-25T07:16:39;12.90;;;4.90;;
48861;SDS011;34681;49.188;-0.374;2022-11-25T07:19:07;7.00;;;3.73;;
48861;SDS011;34681;49.188;-0.374;2022-11-25T07:21:34;9.40;;;4.20;;
48861;SDS011;34681;49.188;-0.374;2022-11-25T07:24:01;8.20;;;3.57;;
48861;SDS011;34681;49.188;-0.374;2022-11-25T07:26:30;9.40;;;4.40;;
48861;SDS011;34681;49.188;-0.374;2022-11-25T07:28:57;15.67;;;3.87;;
48861;SDS011;34681;49.188;-0.374;2022-11-25T07:31:25;14.53;;;5.17;;
48861;SDS011;34681;49.188;-0.374;2022-11-25T07:33:53;9.57;;;4.10;;
48861;SDS011;34681;49.188;-0.374;2022-11-25T07:36:20;16.30;;;4.40;;
48861;SDS011;34681;49.188;-0.374;2022-11-25T07:38:46;12.20;;;3.87;;
48861;SDS011;34681;49.188;-0.374;2022-11-25T07:41:14;7.87;;;3.43;;
48861;SDS011;34681;49.188;-0.374;2022-11-25T07:43:48;9.13;;;3.40;;
48861;SDS011;34681;49.188;-0.374;2022-11-25T07:46:38;9.50;;;4.03;;
48861;SDS011;34681;49.188;-0.374;2022-11-25T07:49:07;12.33;;;3.90;;
48861;SDS011;34681;49.188;-0.374;2022-11-25T07:51:36;12.27;;;4.27;;
48861;SDS011;34681;49.188;-0.374;2022-11-25T07:54:05;7.10;;;3.57;;
48861;SDS011;34681;49.188;-0.374;2022-11-25T07:56:35;13.43;;;5.47;;
48861;SDS011;34681;49.188;-0.374;2022-11-25T07:59:03;7.40;;;3.07;;
48861;SDS011;34681;49.188;-0.374;2022-11-25T08:01:29;10.03;;;3.57;;
48861;SDS011;34681;49.188;-0.374;2022-11-25T08:03:54;6.13;;;3.53;;
48861;SDS011;34681;49.188;-0.374;2022-11-25T08:06:20;7.47;;;3.50;;
48861;SDS011;34681;49.188;-0.374;2022-11-25T08:08:47;9.13;;;4.07;;
48861;SDS011;34681;49.188;-0.374;2022-11-25T08:11:15;12.07;;;4.23;;
48861;SDS011;34681;49.188;-0.374;2022-11-25T08:13:43;10.27;;;4.70;;
48861;SDS011;34681;49.188;-0.374;2022-11-25T08:16:10;14.27;;;4.93;;
48861;SDS011;34681;49.188;-0.374;2022-11-25T08:18:37;15.90;;;5.17;;
48861;SDS011;34681;49.188;-0.374;2022-11-25T08:21:04;12.50;;;5.23;;
48861;SDS011;34681;49.188;-0.374;2022-11-25T08:23:33;13.47;;;4.20;;
48861;SDS011;34681;49.188;-0.374;2022-11-25T08:26:03;10.63;;;4.43;;
48861;SDS011;34681;49.188;-0.374;2022-11-25T08:28:29;9.90;;;3.97;;
48861;SDS011;34681;49.188;-0.374;2022-11-25T08:31:06;9.57;;;3.83;;
48861;SDS011;34681;49.188;-0.374;2022-11-25T08:33:37;7.63;;;3.80;;
48861;SDS011;34681;49.188;-0.374;2022-11-25T08:36:03;15.20;;;5.33;;
48861;SDS011;34681;49.188;-0.374;2022-11-25T08:38:29;12.30;;;4.13;;
48861;SDS011;34681;49.188;-0.374;2022-11-25T08:40:55;11.33;;;4.40;;
48861;SDS011;34681;49.188;-0.374;2022-11-25T08:43:20;13.17;;;4.70;;
48861;SDS011;34681;49.188;-0.374;2022-11-25T08:45:49;11.47;;;3.47;;
48861;SDS011;34681;49.188;-0.374;2022-11-25T08:48:16;11.07;;;4.40;;
48861;SDS011;34681;49.188;-0.374;2022-11-25T08:50:47;14.37;;;4.47;;
48861;SDS011;34681;49.188;-0.374;2022-11-25T08:53:14;12.30;;;3.77;;
48861;SDS011;34681;49.188;-0.374;2022-11-25T08:55:40;16.33;;;4.70;;
48861;SDS011;34681;49.188;-0.374;2022-11-25T08:58:07;11.53;;;4.07;;
48861;SDS011;34681;49.188;-0.374;2022-11-25T09:00:37;15.23;;;3.50;;
48861;SDS011;34681;49.188;-0.374;2022-11-25T09:03:04;10.70;;;3.57;;
48861;SDS011;34681;49.188;-0.374;2022-11-25T09:05:31;15.67;;;4.03;;
48861;SDS011;34681;49.188;-0.374;2022-11-25T09:08:03;13.87;;;4.63;;
48861;SDS011;34681;49.188;-0.374;2022-11-25T09:10:29;11.67;;;4.00;;
48861;SDS011;34681;49.188;-0.374;2022-11-25T09:12:55;11.70;;;5.30;;
48861;SDS011;34681;49.188;-0.374;2022-11-25T09:15:21;13.23;;;4.10;;
48861;SDS011;34681;49.188;-0.374;2022-11-25T09:17:47;10.40;;;4.07;;
48861;SDS011;34681;49.188;-0.374;2022-11-25T09:20:12;8.37;;;3.40;;
48861;SDS011;34681;49.188;-0.374;2022-11-25T09:22:38;9.60;;;3.03;;
48861;SDS011;34681;49.188;-0.374;2022-11-25T09:25:03;14.00;;;3.20;;
48861;SDS011;34681;49.188;-0.374;2022-11-25T09:27:29;9.90;;;3.57;;
48861;SDS011;34681;49.188;-0.374;2022-11-25T09:29:55;14.00;;;3.17;;
48861;SDS011;34681;49.188;-0.374;2022-11-25T09:32:21;11.10;;;3.50;;
48861;SDS011;34681;49.188;-0.374;2022-11-25T09:34:46;14.60;;;4.47;;
48861;SDS011;34681;49.188;-0.374;2022-11-25T09:37:12;15.90;;;4.40;;
48861;SDS011;34681;49.188;-0.374;2022-11-25T09:39:37;15.10;;;5.23;;
48861;SDS011;34681;49.188;-0.374;2022-11-25T09:42:24;14.33;;;4.33;;
48861;SDS011;34681;49.188;-0.374;2022-11-25T09:45:18;14.67;;;4.40;;
48861;SDS011;34681;49.188;-0.374;2022-11-25T09:54:07;12.17;;;4.20;;
48861;SDS011;34681;49.188;-0.374;2022-11-25T09:57:16;13.00;;;3.70;;
48861;SDS011;34681;49.188;-0.374;2022-11-25T09:59:53;14.67;;;4.40;;
48861;SDS011;34681;49.188;-0.374;2022-11-25T10:05:24;15.33;;;4.97;;
48861;SDS011;34681;49.188;-0.374;2022-11-25T10:08:00;15.13;;;4.90;;
48861;SDS011;34681;49.188;-0.374;2022-11-25T10:10:44;13.73;;;5.77;;
48861;SDS011;34681;49.188;-0.374;2022-11-25T10:13:19;16.70;;;5.40;;
48861;SDS011;34681;49.188;-0.374;2022-11-25T10:15:51;10.70;;;4.70;;
48861;SDS011;34681;49.188;-0.374;2022-11-25T10:21:02;17.27;;;5.50;;
48861;SDS011;34681;49.188;-0.374;2022-11-25T10:23:32;19.30;;;5.53;;
48861;SDS011;34681;49.188;-0.374;2022-11-25T10:26:09;16.53;;;4.83;;
48861;SDS011;34681;49.188;-0.374;2022-11-25T10:29:24;15.40;;;5.23;;
48861;SDS011;34681;49.188;-0.374;2022-11-25T10:31:42;19.60;;;6.87;;
48861;SDS011;34681;49.188;-0.374;2022-11-25T10:37:24;33.83;;;6.43;;
48861;SDS011;34681;49.188;-0.374;2022-11-25T10:40:00;26.63;;;5.60;;
48861;SDS011;34681;49.188;-0.374;2022-11-25T10:42:26;21.43;;;4.67;;
48861;SDS011;34681;49.188;-0.374;2022-11-25T10:44:52;15.27;;;5.07;;
48861;SDS011;34681;49.188;-0.374;2022-11-25T10:47:29;20.07;;;4.83;;
48861;SDS011;34681;49.188;-0.374;2022-11-25T10:52:32;18.27;;;4.67;;
48861;SDS011;34681;49.188;-0.374;2022-11-25T10:55:09;17.30;;;5.03;;
48861;SDS011;34681;49.188;-0.374;2022-11-25T10:57:35;12.77;;;4.83;;
48861;SDS011;34681;49.188;-0.374;2022-11-25T11:00:00;24.70;;;5.87;;
48861;SDS011;34681;49.188;-0.374;2022-11-25T11:05:03;23.10;;;5.37;;
48861;SDS011;34681;49.188;-0.374;2022-11-25T11:07:42;17.43;;;4.60;;
48861;SDS011;34681;49.188;-0.374;2022-11-25T11:10:20;22.60;;;5.27;;
48861;SDS011;34681;49.188;-0.374;2022-11-25T11:12:57;27.90;;;6.20;;
48861;SDS011;34681;49.188;-0.374;2022-11-25T11:15:26;16.83;;;5.30;;
48861;SDS011;34681;49.188;-0.374;2022-11-25T11:20:45;16.20;;;4.87;;
48861;SDS011;34681;49.188;-0.374;2022-11-25T11:23:13;15.63;;;4.63;;
48861;SDS011;34681;49.188;-0.374;2022-11-25T11:25:40;16.43;;;4.60;;
48861;SDS011;34681;49.188;-0.374;2022-11-25T11:28:24;18.20;;;5.83;;
48861;SDS011;34681;49.188;-0.374;2022-11-25T11:31:01;12.50;;;5.27;;
48861;SDS011;34681;49.188;-0.374;2022-11-25T11:33:50;21.57;;;4.73;;
48861;SDS011;34681;49.188;-0.374;2022-11-25T11:36:32;12.60;;;4.60;;
48861;SDS011;34681;49.188;-0.374;2022-11-25T11:41:38;16.90;;;4.40;;
48861;SDS011;34681;49.188;-0.374;2022-11-25T11:46:54;22.47;;;5.40;;
48861;SDS011;34681;49.188;-0.374;2022-11-25T11:58:41;19.87;;;5.57;;
48861;SDS011;34681;49.188;-0.374;2022-11-25T12:07:21;11.43;;;4.20;;
48861;SDS011;34681;49.188;-0.374;2022-11-25T12:09:58;19.07;;;5.70;;
48861;SDS011;34681;49.188;-0.374;2022-11-25T12:18:01;18.80;;;5.40;;
48861;SDS011;34681;49.188;-0.374;2022-11-25T12:20:40;21.57;;;5.30;;
48861;SDS011;34681;49.188;-0.374;2022-11-25T12:26:29;15.53;;;4.13;;
48861;SDS011;34681;49.188;-0.374;2022-11-25T12:29:21;18.10;;;5.93;;
48861;SDS011;34681;49.188;-0.374;2022-11-25T12:37:45;10.03;;;4.00;;
48861;SDS011;34681;49.188;-0.374;2022-11-25T12:40:21;21.63;;;5.40;;
48861;SDS011;34681;49.188;-0.374;2022-11-25T12:42:53;11.67;;;4.97;;
48861;SDS011;34681;49.188;-0.374;2022-11-25T12:45:26;12.07;;;3.80;;
48861;SDS011;34681;49.188;-0.374;2022-11-25T12:47:52;12.13;;;4.10;;
48861;SDS011;34681;49.188;-0.374;2022-11-25T12:50:29;10.87;;;3.63;;
48861;SDS011;34681;49.188;-0.374;2022-11-25T12:55:57;22.37;;;5.03;;
48861;SDS011;34681;49.188;-0.374;2022-11-25T12:58:46;9.07;;;3.93;;
48861;SDS011;34681;49.188;-0.374;2022-11-25T13:01:28;12.40;;;4.30;;
48861;SDS011;34681;49.188;-0.374;2022-11-25T13:15:17;16.03;;;4.60;;
48861;SDS011;34681;49.188;-0.374;2022-11-25T13:17:47;8.53;;;3.33;;
48861;SDS011;34681;49.188;-0.374;2022-11-25T13:23:00;14.10;;;3.70;;
48861;SDS011;34681;49.188;-0.374;2022-11-25T13:25:28;12.63;;;4.70;;
48861;SDS011;34681;49.188;-0.374;2022-11-25T13:32:58;9.10;;;3.50;;
48861;SDS011;34681;49.188;-0.374;2022-11-25T13:41:00;12.10;;;3.70;;
48861;SDS011;34681;49.188;-0.374;2022-11-25T13:43:27;7.23;;;3.10;;
48861;SDS011;34681;49.188;-0.374;2022-11-25T13:45:53;15.80;;;4.60;;
48861;SDS011;34681;49.188;-0.374;2022-11-25T13:51:13;11.53;;;4.43;;
48861;SDS011;34681;49.188;-0.374;2022-11-25T13:53:41;13.97;;;4.60;;
48861;SDS011;34681;49.188;-0.374;2022-11-25T13:56:33;14.50;;;4.40;;
48861;SDS011;34681;49.188;-0.374;2022-11-25T14:01:34;17.83;;;3.60;;
48861;SDS011;34681;49.188;-0.374;2022-11-25T14:04:03;8.80;;;3.27;;
48861;SDS011;34681;49.188;-0.374;2022-11-25T14:06:33;13.37;;;3.87;;
48861;SDS011;34681;49.188;-0.374;2022-11-25T14:09:36;15.10;;;3.87;;
48861;SDS011;34681;49.188;-0.374;2022-11-25T14:12:37;13.03;;;3.77;;
48861;SDS011;34681;49.188;-0.374;2022-11-25T14:15:23;13.63;;;4.43;;
48861;SDS011;34681;49.188;-0.374;2022-11-25T14:26:39;15.07;;;3.77;;
48861;SDS011;34681;49.188;-0.374;2022-11-25T14:29:16;12.37;;;3.97;;
48861;SDS011;34681;49.188;-0.374;2022-11-25T14:31:50;8.03;;;3.77;;
48861;SDS011;34681;49.188;-0.374;2022-11-25T14:36:52;14.93;;;4.60;;
48861;SDS011;34681;49.188;-0.374;2022-11-25T14:39:36;13.10;;;3.17;;
48861;SDS011;34681;49.188;-0.374;2022-11-25T14:42:08;11.73;;;3.67;;
48861;SDS011;34681;49.188;-0.374;2022-11-25T14:44:45;10.17;;;3.77;;
48861;SDS011;34681;49.188;-0.374;2022-11-25T14:47:14;14.77;;;4.40;;
48861;SDS011;34681;49.188;-0.374;2022-11-25T14:49:45;11.60;;;4.27;;
48861;SDS011;34681;49.188;-0.374;2022-11-25T14:54:55;10.00;;;4.20;;
48861;SDS011;34681;49.188;-0.374;2022-11-25T14:57:23;11.53;;;3.83;;
48861;SDS011;34681;49.188;-0.374;2022-11-25T14:59:51;14.03;;;4.57;;
48861;SDS011;34681;49.188;-0.374;2022-11-25T15:02:26;9.87;;;3.80;;
48861;SDS011;34681;49.188;-0.374;2022-11-25T15:07:31;11.90;;;3.70;;
48861;SDS011;34681;49.188;-0.374;2022-11-25T15:09:57;12.90;;;3.90;;
48861;SDS011;34681;49.188;-0.374;2022-11-25T15:12:23;12.30;;;4.00;;
48861;SDS011;34681;49.188;-0.374;2022-11-25T15:14:54;11.50;;;3.40;;
48861;SDS011;34681;49.188;-0.374;2022-11-25T15:17:30;16.33;;;3.83;;
48861;SDS011;34681;49.188;-0.374;2022-11-25T15:20:00;13.47;;;4.03;;
48861;SDS011;34681;49.188;-0.374;2022-11-25T15:22:36;12.33;;;5.10;;
48861;SDS011;34681;49.188;-0.374;2022-11-25T15:25:06;16.17;;;4.70;;
48861;SDS011;34681;49.188;-0.374;2022-11-25T15:27:34;14.80;;;4.37;;
48861;SDS011;34681;49.188;-0.374;2022-11-25T15:32:51;14.50;;;5.23;;
48861;SDS011;34681;49.188;-0.374;2022-11-25T15:35:19;13.40;;;5.97;;
48861;SDS011;34681;49.188;-0.374;2022-11-25T15:37:47;14.20;;;5.80;;
48861;SDS011;34681;49.188;-0.374;2022-11-25T15:43:05;17.70;;;5.70;;
48861;SDS011;34681;49.188;-0.374;2022-11-25T15:45:44;17.17;;;5.93;;
48861;SDS011;34681;49.188;-0.374;2022-11-25T15:51:03;25.40;;;5.60;;
48861;SDS011;34681;49.188;-0.374;2022-11-25T15:53:37;14.90;;;5.30;;
48861;SDS011;34681;49.188;-0.374;2022-11-25T15:56:04;17.03;;;5.40;;
48861;SDS011;34681;49.188;-0.374;2022-11-25T15:58:31;14.37;;;4.73;;
48861;SDS011;34681;49.188;-0.374;2022-11-25T16:03:29;24.17;;;7.23;;
48861;SDS011;34681;49.188;-0.374;2022-11-25T16:05:59;13.50;;;5.33;;
48861;SDS011;34681;49.188;-0.374;2022-11-25T16:11:16;16.07;;;5.40;;
48861;SDS011;34681;49.188;-0.374;2022-11-25T16:13:44;13.40;;;4.73;;
48861;SDS011;34681;49.188;-0.374;2022-11-25T16:16:20;9.70;;;4.17;;
48861;SDS011;34681;49.188;-0.374;2022-11-25T16:21:36;14.50;;;5.20;;
48861;SDS011;34681;49.188;-0.374;2022-11-25T16:24:23;12.13;;;4.53;;
48861;SDS011;34681;49.188;-0.374;2022-11-25T16:26:57;9.00;;;4.00;;
48861;SDS011;34681;49.188;-0.374;2022-11-25T16:29:32;10.50;;;4.30;;
48861;SDS011;34681;49.188;-0.374;2022-11-25T16:32:13;7.60;;;4.33;;
48861;SDS011;34681;49.188;-0.374;2022-11-25T16:34:41;11.53;;;4.40;;
48861;SDS011;34681;49.188;-0.374;2022-11-25T16:37:06;13.70;;;6.67;;
48861;SDS011;34681;49.188;-0.374;2022-11-25T16:39:32;9.73;;;5.43;;
48861;SDS011;34681;49.188;-0.374;2022-11-25T16:41:58;16.90;;;6.73;;
48861;SDS011;34681;49.188;-0.374;2022-11-25T16:44:29;13.53;;;6.20;;